Time;durP1;ratioP1;P1;durP2;ratioP2;P2;SDS_P1;SDS_P2;PMS_P1;PMS_P2;Temp;Humidity;BMP_temperature;BMP_pressure;BME280_temperature;BME280_humidity;BME280_pressure;Samples;Min_cycle;Max_cycle;Signal;HPM_P1;HPM_P2
2022/05/02 00:00:10;;;;;;;7.22;4.20;;;9.80;99.90;;;;;;5050225;28;20028;-65
2022/05/02 00:02:36;;;;;;;7.75;4.78;;;9.80;99.90;;;;;;5049978;28;20514;-65
2022/05/02 00:05:02;;;;;;;8.05;4.47;;;9.70;99.90;;;;;;5049974;28;20171;-65
2022/05/02 00:07:28;;;;;;;10.50;4.68;;;9.70;99.90;;;;;;5052709;28;20032;-64
2022/05/02 00:09:53;;;;;;;10.07;4.80;;;9.60;99.90;;;;;;5052886;28;20021;-64
2022/05/02 00:12:19;;;;;;;8.48;4.38;;;9.60;99.90;;;;;;5052595;28;20435;-64
2022/05/02 00:14:45;;;;;;;8.23;5.00;;;9.60;99.90;;;;;;5052777;28;20036;-64
2022/05/02 00:17:10;;;;;;;11.30;4.63;;;9.50;99.90;;;;;;5052992;28;20017;-64
2022/05/02 00:19:36;;;;;;;8.43;4.63;;;9.50;99.90;;;;;;5052867;28;20428;-65
2022/05/02 00:22:02;;;;;;;8.23;4.63;;;9.50;99.90;;;;;;5052755;28;20021;-64
2022/05/02 00:24:28;;;;;;;7.07;4.10;;;9.50;99.90;;;;;;5049850;28;20033;-65
2022/05/02 00:26:53;;;;;;;7.97;4.45;;;9.50;99.90;;;;;;5049358;28;20394;-65
2022/05/02 00:29:19;;;;;;;11.32;4.35;;;9.50;99.90;;;;;;5050940;28;20029;-64
2022/05/02 00:31:48;;;;;;;10.15;4.47;;;9.50;99.90;;;;;;5052454;28;20389;-64
2022/05/02 00:34:13;;;;;;;8.23;4.45;;;9.60;99.90;;;;;;5052399;28;20103;-64
2022/05/02 00:36:40;;;;;;;7.35;4.82;;;9.60;99.90;;;;;;5052401;28;20059;-65
2022/05/02 00:39:06;;;;;;;7.38;4.63;;;9.60;99.90;;;;;;5052458;28;20024;-64
2022/05/02 00:41:31;;;;;;;8.35;4.32;;;9.50;99.90;;;;;;5051723;28;20127;-65
2022/05/02 00:43:57;;;;;;;6.43;3.53;;;9.50;99.90;;;;;;5034838;28;20105;-65
2022/05/02 00:46:25;;;;;;;9.40;4.93;;;9.40;99.90;;;;;;5032401;28;20037;-64
2022/05/02 00:48:55;;;;;;;7.93;4.55;;;9.50;99.90;;;;;;5032194;28;20026;-64
2022/05/02 00:51:21;;;;;;;7.70;4.53;;;9.50;99.90;;;;;;5031528;28;20029;-64
2022/05/02 00:53:49;;;;;;;11.15;4.97;;;9.40;99.90;;;;;;5031807;28;20037;-64
2022/05/02 00:56:20;;;;;;;8.48;4.57;;;9.50;99.90;;;;;;5046703;28;20112;-64
2022/05/02 00:58:49;;;;;;;7.57;4.57;;;9.50;99.90;;;;;;5052268;28;20267;-64
2022/05/02 01:01:14;;;;;;;9.23;5.32;;;9.50;99.90;;;;;;5051083;28;20162;-67
2022/05/02 01:03:40;;;;;;;12.23;4.88;;;9.60;99.90;;;;;;5047423;28;20214;-65
2022/05/02 01:08:53;;;;;;;11.73;5.88;;;9.60;99.90;;;;;;5051821;28;20024;-64
2022/05/02 01:11:18;;;;;;;10.00;4.95;;;9.70;99.90;;;;;;5051451;28;20043;-64
2022/05/02 01:13:46;;;;;;;8.93;4.63;;;9.60;99.90;;;;;;5051815;28;20043;-64
2022/05/02 01:16:20;;;;;;;9.20;4.82;;;9.70;99.90;;;;;;5051623;28;20032;-64
2022/05/02 01:18:48;;;;;;;6.93;4.20;;;9.70;99.90;;;;;;5051666;28;20517;-64
2022/05/02 01:21:16;;;;;;;11.77;5.50;;;9.70;99.90;;;;;;5051568;28;20489;-64
2022/05/02 01:23:43;;;;;;;11.00;5.32;;;9.70;99.90;;;;;;5051533;28;20025;-64
2022/05/02 01:26:08;;;;;;;8.00;4.82;;;9.70;99.90;;;;;;5051187;28;20052;-64
2022/05/02 01:28:45;;;;;;;7.68;4.70;;;9.70;99.90;;;;;;5051519;28;20056;-64
2022/05/02 01:31:11;;;;;;;8.13;4.55;;;9.70;99.90;;;;;;5051518;28;20458;-64
2022/05/02 01:33:37;;;;;;;10.75;5.68;;;9.70;99.90;;;;;;5051281;28;20481;-64
2022/05/02 01:36:03;;;;;;;7.78;5.22;;;9.60;99.90;;;;;;5051308;28;20094;-64
2022/05/02 01:38:29;;;;;;;10.65;5.30;;;9.60;99.90;;;;;;5051223;28;20067;-64
2022/05/02 01:40:55;;;;;;;7.57;4.50;;;9.60;99.90;;;;;;5050765;28;20056;-67
2022/05/02 01:43:21;;;;;;;10.25;4.82;;;9.60;99.90;;;;;;5051153;28;20041;-64
2022/05/02 01:45:47;;;;;;;9.18;5.03;;;9.60;99.90;;;;;;5050008;28;20028;-64
2022/05/02 01:48:12;;;;;;;7.07;4.57;;;9.60;99.90;;;;;;5047624;28;20128;-65
2022/05/02 01:50:38;;;;;;;9.77;5.30;;;9.60;99.90;;;;;;5027311;28;20037;-65
2022/05/02 01:53:04;;;;;;;9.80;4.65;;;9.60;99.90;;;;;;5027838;28;20388;-64
2022/05/02 01:55:29;;;;;;;10.15;4.85;;;9.60;99.90;;;;;;5036311;28;20066;-65
2022/05/02 01:57:55;;;;;;;7.78;4.95;;;9.60;99.90;;;;;;5047575;28;20056;-65
2022/05/02 02:00:21;;;;;;;10.45;5.57;;;9.60;99.90;;;;;;5047851;28;20478;-64
2022/05/02 02:02:46;;;;;;;10.20;5.20;;;9.60;99.90;;;;;;5047395;28;20043;-64
2022/05/02 02:07:56;;;;;;;8.77;5.28;;;9.70;99.90;;;;;;5050199;28;20331;-64
2022/05/02 02:10:22;;;;;;;10.18;4.82;;;9.60;99.90;;;;;;5050646;28;20470;-65
2022/05/02 02:12:47;;;;;;;9.52;5.13;;;9.60;99.90;;;;;;5050523;28;20025;-65
2022/05/02 02:15:14;;;;;;;12.07;5.00;;;9.60;99.90;;;;;;5050452;28;20122;-64
2022/05/02 02:17:41;;;;;;;9.73;4.97;;;9.60;99.90;;;;;;5050449;28;20028;-64
2022/05/02 02:20:08;;;;;;;8.48;4.78;;;9.60;99.90;;;;;;5050516;28;20091;-64
2022/05/02 02:22:34;;;;;;;9.82;5.20;;;9.60;99.90;;;;;;5050449;28;20462;-64
2022/05/02 02:25:00;;;;;;;11.88;6.28;;;9.70;99.90;;;;;;5050358;28;20107;-64
2022/05/02 02:27:25;;;;;;;8.77;5.32;;;9.60;99.90;;;;;;5050259;28;20031;-65
2022/05/02 02:29:51;;;;;;;9.88;5.38;;;9.60;99.90;;;;;;5050576;28;20033;-64
2022/05/02 02:32:16;;;;;;;11.77;5.35;;;9.60;99.90;;;;;;5050268;28;20504;-64
2022/05/02 02:34:42;;;;;;;8.88;4.38;;;9.70;99.90;;;;;;5042459;28;20131;-64
2022/05/02 02:37:08;;;;;;;10.70;6.40;;;9.60;99.90;;;;;;5029888;28;20068;-64
2022/05/02 02:39:33;;;;;;;10.07;5.75;;;9.60;99.90;;;;;;5026955;28;20037;-65
2022/05/02 02:41:59;;;;;;;10.88;5.47;;;9.60;99.90;;;;;;5027304;28;20053;-64
2022/05/02 02:44:25;;;;;;;8.48;5.05;;;9.60;99.90;;;;;;5027139;28;20379;-64
2022/05/02 02:46:50;;;;;;;10.48;4.75;;;9.60;99.90;;;;;;5027040;28;20026;-64
2022/05/02 02:49:16;;;;;;;11.10;4.85;;;9.60;99.90;;;;;;5029839;28;20088;-64
2022/05/02 02:51:41;;;;;;;9.55;5.50;;;9.60;99.90;;;;;;5030034;28;20029;-64
2022/05/02 02:54:07;;;;;;;10.73;5.68;;;9.70;99.90;;;;;;5030036;28;20037;-64
2022/05/02 02:56:33;;;;;;;9.50;5.43;;;9.60;99.90;;;;;;5046890;28;20030;-64
2022/05/02 02:58:58;;;;;;;10.18;5.53;;;9.70;99.90;;;;;;5049267;28;20112;-64
2022/05/02 03:01:24;;;;;;;10.15;5.47;;;9.70;99.90;;;;;;5049935;28;20022;-64
2022/05/02 03:03:51;;;;;;;8.25;4.78;;;9.70;99.90;;;;;;5049655;28;20055;-64
2022/05/02 03:06:16;;;;;;;9.65;5.10;;;9.70;99.90;;;;;;5049836;28;20032;-64
2022/05/02 03:08:44;;;;;;;9.85;4.90;;;9.70;99.90;;;;;;5049873;28;20083;-64
2022/05/02 03:11:11;;;;;;;10.73;5.57;;;9.70;99.90;;;;;;5049496;28;20448;-64
2022/05/02 03:13:36;;;;;;;11.20;5.18;;;9.70;99.90;;;;;;5049612;28;20040;-64
2022/05/02 03:16:03;;;;;;;9.25;5.60;;;9.70;99.90;;;;;;5052301;28;20028;-64
2022/05/02 03:18:29;;;;;;;10.50;5.18;;;9.70;99.90;;;;;;5054428;28;20098;-64
2022/05/02 03:20:55;;;;;;;12.38;5.28;;;9.70;99.90;;;;;;5053877;28;20021;-64
2022/05/02 03:23:21;;;;;;;8.23;4.68;;;9.70;99.90;;;;;;5053949;28;20025;-64
2022/05/02 03:25:46;;;;;;;10.30;4.47;;;9.70;99.90;;;;;;5053509;28;20021;-64
2022/05/02 03:28:12;;;;;;;9.45;5.05;;;9.70;99.90;;;;;;5054338;28;20382;-64
2022/05/02 03:30:38;;;;;;;10.02;4.28;;;9.70;99.90;;;;;;5053728;28;20082;-64
2022/05/02 03:33:04;;;;;;;10.20;5.43;;;9.80;99.90;;;;;;5053459;28;20386;-64
2022/05/02 03:35:30;;;;;;;9.77;5.05;;;9.80;99.90;;;;;;5053504;28;20037;-64
2022/05/02 03:37:56;;;;;;;11.45;5.03;;;9.80;99.90;;;;;;5053602;28;20032;-64
2022/05/02 03:40:21;;;;;;;8.85;4.97;;;9.80;99.90;;;;;;5053309;28;20035;-65
2022/05/02 03:42:47;;;;;;;9.85;5.32;;;9.80;99.90;;;;;;5053085;28;20049;-64
2022/05/02 03:45:13;;;;;;;9.77;5.22;;;9.80;99.90;;;;;;5053431;28;20029;-65
2022/05/02 03:47:38;;;;;;;12.20;5.60;;;9.70;99.90;;;;;;5053260;28;20040;-64
2022/05/02 03:50:05;;;;;;;10.98;4.78;;;9.70;99.90;;;;;;5053532;28;20052;-64
2022/05/02 03:52:31;;;;;;;9.57;5.22;;;9.70;99.90;;;;;;5053274;28;20048;-64
2022/05/02 03:54:56;;;;;;;9.02;4.70;;;9.70;99.90;;;;;;5052837;28;20045;-64
2022/05/02 03:57:22;;;;;;;11.15;4.95;;;9.70;99.90;;;;;;5053168;28;20037;-64
2022/05/02 03:59:48;;;;;;;11.00;5.30;;;9.70;99.90;;;;;;5053314;28;20028;-64
2022/05/02 04:02:14;;;;;;;11.68;5.05;;;9.70;99.90;;;;;;5053171;28;20033;-64
2022/05/02 04:04:39;;;;;;;9.93;5.13;;;9.60;99.90;;;;;;5053408;28;20051;-64
2022/05/02 04:07:06;;;;;;;10.10;4.90;;;9.60;99.90;;;;;;5052723;28;20443;-64
2022/05/02 04:09:31;;;;;;;8.57;5.03;;;9.60;99.90;;;;;;5053175;28;20020;-64
2022/05/02 04:11:57;;;;;;;11.68;5.28;;;9.70;99.90;;;;;;5052588;28;20397;-64
2022/05/02 04:14:23;;;;;;;10.27;5.55;;;9.70;99.90;;;;;;5052667;28;20041;-64
2022/05/02 04:16:50;;;;;;;10.43;6.00;;;9.60;99.90;;;;;;5050477;28;20039;-64
2022/05/02 04:19:16;;;;;;;10.60;5.60;;;9.70;99.90;;;;;;5049761;28;20033;-63
2022/05/02 04:21:42;;;;;;;10.88;5.20;;;9.70;99.90;;;;;;5051435;28;20021;-65
2022/05/02 04:24:08;;;;;;;11.73;5.60;;;9.70;99.90;;;;;;5052711;28;20381;-65
2022/05/02 04:26:34;;;;;;;10.98;5.78;;;9.70;99.90;;;;;;5051847;28;20033;-65
2022/05/02 04:29:00;;;;;;;11.18;5.45;;;9.70;99.90;;;;;;5052664;28;20469;-65
2022/05/02 04:31:25;;;;;;;10.32;5.45;;;9.70;99.90;;;;;;5039975;28;20049;-66
2022/05/02 04:33:51;;;;;;;10.15;5.97;;;9.70;99.90;;;;;;5029812;28;20095;-65
2022/05/02 04:36:17;;;;;;;9.63;5.40;;;9.60;99.90;;;;;;5029438;28;20436;-65
2022/05/02 04:38:43;;;;;;;11.85;5.50;;;9.60;99.90;;;;;;5032830;28;20030;-65
2022/05/02 04:41:13;;;;;;;10.98;5.45;;;9.60;99.90;;;;;;5032085;28;20029;-65
2022/05/02 04:43:39;;;;;;;9.25;5.28;;;9.60;99.90;;;;;;5032348;28;20033;-65
2022/05/02 04:46:05;;;;;;;11.77;6.35;;;9.60;99.90;;;;;;5032416;28;20076;-66
2022/05/02 04:48:30;;;;;;;13.10;6.43;;;9.60;99.90;;;;;;5032268;28;20022;-65
2022/05/02 04:50:56;;;;;;;13.02;6.35;;;9.50;99.90;;;;;;5032540;28;20021;-65
2022/05/02 04:53:22;;;;;;;12.15;6.20;;;9.50;99.90;;;;;;5032106;28;20394;-65
2022/05/02 04:55:48;;;;;;;10.30;5.65;;;9.50;99.90;;;;;;5042357;28;20037;-65
2022/05/02 04:58:14;;;;;;;13.90;5.65;;;9.50;99.90;;;;;;5052032;28;20052;-65
2022/05/02 05:00:41;;;;;;;10.23;5.32;;;9.50;99.90;;;;;;5051808;28;20049;-65
2022/05/02 05:03:06;;;;;;;11.52;5.85;;;9.60;99.90;;;;;;5048823;28;20025;-66
2022/05/02 05:05:32;;;;;;;12.00;6.43;;;9.60;99.90;;;;;;5049005;28;20836;-65
2022/05/02 05:07:58;;;;;;;11.02;5.90;;;9.60;99.90;;;;;;5048814;28;20394;-65
2022/05/02 05:10:24;;;;;;;12.63;6.47;;;9.70;99.90;;;;;;5048763;28;20056;-65
2022/05/02 05:13:06;;;;;;;11.40;5.57;;;9.70;99.90;;;;;;5051538;28;20120;-65
2022/05/02 05:19:02;;;;;;;13.00;6.00;;;9.70;99.90;;;;;;5052073;28;20035;-65
2022/05/02 05:21:49;;;;;;;10.93;5.53;;;9.70;99.90;;;;;;5050262;28;20440;-65
2022/05/02 05:24:36;;;;;;;10.75;5.75;;;9.80;99.90;;;;;;5051463;28;20122;-65
2022/05/02 05:27:20;;;;;;;9.13;5.43;;;9.80;99.90;;;;;;5031097;28;20022;-65
2022/05/02 05:30:08;;;;;;;9.68;5.65;;;9.80;99.90;;;;;;5031438;28;20079;-65
2022/05/02 05:32:46;;;;;;;11.43;5.57;;;9.80;99.90;;;;;;5031610;28;20025;-65
2022/05/02 05:35:21;;;;;;;10.63;5.47;;;9.80;99.90;;;;;;5031279;28;20033;-65
2022/05/02 05:37:59;;;;;;;13.20;5.75;;;9.80;99.90;;;;;;5030859;28;20025;-65
2022/05/02 05:40:35;;;;;;;8.52;5.28;;;9.80;99.90;;;;;;5031450;28;20037;-65
2022/05/02 05:43:38;;;;;;;13.55;5.35;;;9.90;99.90;;;;;;5030838;28;20505;-65
2022/05/02 05:46:04;;;;;;;10.30;5.47;;;9.90;99.90;;;;;;5031346;28;20098;-65
2022/05/02 05:48:32;;;;;;;10.50;5.93;;;9.90;99.90;;;;;;5030998;28;20029;-65
2022/05/02 05:51:32;;;;;;;9.88;5.88;;;9.90;99.90;;;;;;5030229;28;20032;-66
2022/05/02 05:54:39;;;;;;;10.35;5.53;;;10.00;99.90;;;;;;5027443;28;20056;-66
2022/05/02 05:57:26;;;;;;;11.60;6.57;;;10.00;99.90;;;;;;5018927;28;20384;-64
2022/05/02 05:59:55;;;;;;;11.68;6.13;;;10.00;99.90;;;;;;5030777;28;20026;-65
2022/05/02 06:02:46;;;;;;;11.85;6.22;;;10.00;99.90;;;;;;5030530;28;20030;-64
2022/05/02 06:05:13;;;;;;;11.40;7.32;;;10.00;99.90;;;;;;5030530;28;20048;-64
2022/05/02 06:07:40;;;;;;;12.07;6.57;;;10.10;99.90;;;;;;5030267;28;20025;-64
2022/05/02 06:10:09;;;;;;;9.88;5.78;;;10.10;99.90;;;;;;5030683;28;20116;-64
2022/05/02 06:12:37;;;;;;;11.23;6.15;;;10.20;99.90;;;;;;5030507;28;20025;-66
2022/05/02 06:20:39;;;;;;;13.55;6.53;;;10.40;99.90;;;;;;5030424;28;20028;-65
2022/05/02 06:23:09;;;;;;;13.38;6.03;;;10.50;99.90;;;;;;5029540;28;20463;-66
2022/05/02 06:25:37;;;;;;;10.50;5.28;;;10.60;99.90;;;;;;5028558;28;20033;-64
2022/05/02 06:28:04;;;;;;;10.40;5.72;;;10.60;99.90;;;;;;5027240;28;20528;-65
2022/05/02 06:30:31;;;;;;;10.70;5.97;;;10.70;99.90;;;;;;5029375;28;20034;-65
2022/05/02 06:33:00;;;;;;;10.00;6.28;;;10.80;99.90;;;;;;5030243;28;20465;-66
2022/05/02 06:35:35;;;;;;;11.90;6.00;;;10.90;99.90;;;;;;5030461;28;20033;-65
2022/05/02 06:38:10;;;;;;;12.18;5.72;;;10.90;99.90;;;;;;5032686;28;20034;-65
2022/05/02 06:40:36;;;;;;;10.43;5.63;;;11.00;99.90;;;;;;5029995;28;20026;-65
2022/05/02 06:43:28;;;;;;;9.90;5.63;;;11.00;99.90;;;;;;5029851;28;20056;-66
2022/05/02 06:46:14;;;;;;;9.35;5.22;;;11.10;99.90;;;;;;5029192;28;20458;-66
2022/05/02 06:49:08;;;;;;;11.98;6.18;;;11.10;99.90;;;;;;5026598;28;20545;-65
2022/05/02 06:51:42;;;;;;;7.22;5.00;;;11.20;99.90;;;;;;5030986;28;20025;-65
2022/05/02 06:54:43;;;;;;;9.77;5.00;;;11.20;99.90;;;;;;5048778;28;20057;-65
2022/05/02 06:57:17;;;;;;;11.70;6.45;;;11.20;99.90;;;;;;5020741;28;20079;-65
2022/05/02 07:00:06;;;;;;;10.68;5.65;;;11.20;99.90;;;;;;5030118;28;20029;-65
2022/05/02 07:02:53;;;;;;;11.27;5.15;;;11.10;99.90;;;;;;5032221;28;20032;-66
2022/05/02 07:05:32;;;;;;;10.68;5.78;;;11.20;99.90;;;;;;5046522;28;20123;-65
2022/05/02 07:08:01;;;;;;;10.25;5.70;;;11.20;99.90;;;;;;5048447;28;20535;-65
2022/05/02 07:10:38;;;;;;;7.45;4.63;;;11.20;99.90;;;;;;5049609;28;20499;-65
2022/05/02 07:13:32;;;;;;;7.60;5.22;;;11.30;99.90;;;;;;5049602;28;20021;-66
2022/05/02 07:16:10;;;;;;;8.45;4.95;;;11.40;99.90;;;;;;5040253;28;20112;-65
2022/05/02 07:19:00;;;;;;;12.13;6.03;;;11.50;99.90;;;;;;5049885;28;20056;-65
2022/05/02 07:22:00;;;;;;;8.02;5.28;;;11.60;99.90;;;;;;5049778;28;20036;-65
2022/05/02 07:24:44;;;;;;;10.40;5.60;;;11.70;99.90;;;;;;5049679;28;20029;-65
2022/05/02 07:27:59;;;;;;;9.23;5.72;;;11.80;99.90;;;;;;5049464;28;20021;-64
2022/05/02 07:30:25;;;;;;;10.45;5.30;;;12.10;99.90;;;;;;5035900;28;20044;-65
2022/05/02 07:32:55;;;;;;;11.98;5.75;;;12.40;99.90;;;;;;5049730;28;20060;-65
2022/05/02 07:35:22;;;;;;;7.63;5.00;;;12.70;99.90;;;;;;5049605;28;20103;-64
2022/05/02 07:37:49;;;;;;;7.78;5.20;;;13.10;99.90;;;;;;5050786;28;20125;-64
2022/05/02 07:40:19;;;;;;;6.55;4.10;;;13.20;99.90;;;;;;5049988;28;20470;-65
2022/05/02 07:42:45;;;;;;;8.23;4.70;;;13.80;99.90;;;;;;5048960;28;20049;-65
2022/05/02 07:45:13;;;;;;;7.05;5.03;;;14.10;99.90;;;;;;5049384;28;20437;-65
2022/05/02 07:47:43;;;;;;;6.60;4.55;;;14.50;99.90;;;;;;5046880;28;20029;-65
2022/05/02 07:50:10;;;;;;;5.97;4.30;;;14.50;99.90;;;;;;5046503;28;20029;-66
2022/05/02 07:52:39;;;;;;;6.43;3.42;;;14.60;99.90;;;;;;5049378;28;20506;-65
2022/05/02 07:55:07;;;;;;;6.83;4.17;;;14.50;99.90;;;;;;5049486;28;20037;-65
2022/05/02 07:57:37;;;;;;;7.25;4.18;;;14.60;99.90;;;;;;5049053;28;20030;-65
2022/05/02 08:00:04;;;;;;;6.85;3.50;;;14.30;99.90;;;;;;5048131;28;20032;-65
2022/05/02 08:02:30;;;;;;;5.18;3.53;;;14.50;99.90;;;;;;5049484;28;20393;-64
2022/05/02 08:04:57;;;;;;;6.68;4.20;;;14.30;99.90;;;;;;5050500;28;20033;-65
2022/05/02 08:07:38;;;;;;;5.22;3.30;;;14.00;99.90;;;;;;5052571;28;20276;-65
2022/05/02 08:10:33;;;;;;;5.50;3.42;;;14.10;99.90;;;;;;5053099;28;20067;-65
2022/05/02 08:13:01;;;;;;;6.60;4.03;;;14.10;99.90;;;;;;5052886;28;20498;-65
2022/05/02 08:15:37;;;;;;;5.22;3.47;;;14.00;99.90;;;;;;5053012;28;20061;-65
2022/05/02 08:18:18;;;;;;;4.38;3.03;;;14.00;99.90;;;;;;5053016;28;20025;-65
2022/05/02 08:21:02;;;;;;;5.07;3.72;;;13.60;99.90;;;;;;5052962;28;20106;-65
2022/05/02 08:27:31;;;;;;;5.90;3.78;;;13.40;99.90;;;;;;5051946;28;20040;-66
2022/05/02 08:30:25;;;;;;;6.38;3.53;;;13.40;99.90;;;;;;5053021;28;20029;-62
2022/05/02 08:32:53;;;;;;;5.97;3.65;;;13.40;99.90;;;;;;5052757;28;20033;-66
2022/05/02 08:35:29;;;;;;;6.28;3.75;;;13.40;99.90;;;;;;5052512;28;20457;-65
2022/05/02 08:38:02;;;;;;;5.50;3.40;;;13.40;99.90;;;;;;5052734;28;20140;-66
2022/05/02 08:40:27;;;;;;;7.35;4.00;;;13.50;99.90;;;;;;5052513;28;20029;-65
2022/05/02 08:43:31;;;;;;;5.03;3.35;;;13.60;99.90;;;;;;5051341;28;20413;-66
2022/05/02 08:46:06;;;;;;;6.72;3.63;;;13.60;99.90;;;;;;5032336;28;20036;-65
2022/05/02 08:48:40;;;;;;;6.55;4.05;;;13.80;99.90;;;;;;5032421;28;20096;-65
2022/05/02 08:51:11;;;;;;;6.85;3.72;;;13.90;99.90;;;;;;5032480;28;20406;-65
2022/05/02 08:53:49;;;;;;;7.13;4.05;;;13.80;99.90;;;;;;5032333;28;20025;-65
2022/05/02 08:56:58;;;;;;;6.25;3.65;;;13.80;99.90;;;;;;5046825;28;20044;-66
2022/05/02 08:59:51;;;;;;;6.25;3.80;;;13.60;99.90;;;;;;5049914;28;20033;-65
2022/05/02 09:02:41;;;;;;;7.25;4.00;;;13.70;99.90;;;;;;5051957;28;20037;-64
2022/05/02 09:05:37;;;;;;;6.80;4.32;;;14.00;99.90;;;;;;5051977;28;20470;-65
2022/05/02 09:08:16;;;;;;;7.03;3.40;;;14.00;99.90;;;;;;5051784;28;20059;-64
2022/05/02 09:10:57;;;;;;;5.63;3.85;;;13.80;99.90;;;;;;5032169;28;20037;-66
2022/05/02 09:13:36;;;;;;;;;;;14.00;99.90;;;;;;5031160;28;20486;-66
2022/05/02 09:16:48;;;;;;;5.00;3.08;;;13.90;99.90;;;;;;5031620;28;20373;-66
2022/05/02 09:19:23;;;;;;;5.75;2.90;;;14.30;99.90;;;;;;5014729;28;20034;-66
2022/05/02 09:21:58;;;;;;;3.30;2.53;;;14.30;99.90;;;;;;5031930;28;20060;-67
2022/05/02 09:24:52;;;;;;;3.75;2.70;;;14.30;99.90;;;;;;5031763;28;20498;-66
2022/05/02 09:27:52;;;;;;;4.93;2.63;;;14.30;99.90;;;;;;5031269;28;20018;-67
2022/05/02 09:30:42;;;;;;;4.03;2.42;;;14.10;99.90;;;;;;5031545;28;20478;-67
2022/05/02 09:33:38;;;;;;;3.28;2.17;;;14.10;99.90;;;;;;5031407;28;20022;-64
2022/05/02 09:36:21;;;;;;;2.55;2.10;;;14.10;99.90;;;;;;5031434;28;20025;-64
2022/05/02 09:38:53;;;;;;;4.90;3.03;;;14.00;99.90;;;;;;5041033;28;20021;-67
2022/05/02 09:41:33;;;;;;;5.72;3.08;;;14.00;99.90;;;;;;5048489;28;20044;-66
2022/05/02 09:50:31;;;;;;;4.20;3.08;;;14.00;99.90;;;;;;5036592;28;20053;-66
2022/05/02 09:53:15;;;;;;;6.22;3.10;;;14.10;99.90;;;;;;5047965;28;20473;-67
2022/05/02 09:58:43;;;;;;;6.25;3.55;;;14.30;99.90;;;;;;5047757;28;20044;-67
2022/05/02 10:01:22;;;;;;;5.65;3.60;;;14.40;99.90;;;;;;5048075;28;20082;-63
2022/05/02 10:04:08;;;;;;;4.55;2.95;;;14.40;99.90;;;;;;5048026;28;20075;-63
2022/05/02 10:07:03;;;;;;;6.25;3.63;;;14.40;99.90;;;;;;5047664;28;20020;-64
2022/05/02 10:10:07;;;;;;;4.95;3.28;;;14.40;99.90;;;;;;5033217;28;20071;-64
2022/05/02 10:12:41;;;;;;;6.38;3.22;;;14.40;99.90;;;;;;5047450;28;20393;-65
2022/05/02 10:15:28;;;;;;;6.25;3.25;;;14.50;99.90;;;;;;5047654;28;20119;-65
2022/05/02 10:18:15;;;;;;;7.65;4.68;;;14.60;99.90;;;;;;5047582;28;20116;-65
2022/05/02 10:21:07;;;;;;;4.30;2.90;;;14.70;99.90;;;;;;5047451;28;20037;-65
2022/05/02 10:24:03;;;;;;;7.80;4.13;;;15.00;99.90;;;;;;5047248;28;20120;-66
2022/05/02 10:26:47;;;;;;;7.95;3.58;;;15.10;99.90;;;;;;5047308;28;20029;-66
2022/05/02 10:29:32;;;;;;;5.13;3.30;;;15.30;99.90;;;;;;5047250;28;20517;-67
2022/05/02 10:32:04;;;;;;;6.32;3.53;;;15.40;99.90;;;;;;5047291;28;20033;-66
2022/05/02 10:34:32;;;;;;;5.90;3.78;;;15.50;99.90;;;;;;5038479;28;20124;-66
2022/05/02 10:37:04;;;;;;;5.25;3.35;;;15.50;99.90;;;;;;5027334;28;20438;-66
2022/05/02 10:39:45;;;;;;;6.68;4.00;;;15.60;99.90;;;;;;5027009;28;20470;-66
2022/05/02 10:42:13;;;;;;;6.38;3.85;;;15.60;99.90;;;;;;5026669;28;20064;-66
2022/05/02 10:44:44;;;;;;;6.90;3.92;;;15.60;99.90;;;;;;5027096;28;20638;-67
2022/05/02 10:47:14;;;;;;;6.75;3.75;;;15.70;99.90;;;;;;5026958;28;20080;-66
2022/05/02 10:50:08;;;;;;;5.78;3.75;;;15.70;99.90;;;;;;5026989;28;20029;-63
2022/05/02 10:52:39;;;;;;;7.15;3.60;;;15.60;99.90;;;;;;5027034;28;20029;-63
2022/05/02 10:55:12;;;;;;;6.95;3.75;;;15.60;99.90;;;;;;5032186;28;20509;-64
2022/05/02 10:57:48;;;;;;;7.43;3.78;;;15.60;99.90;;;;;;5046704;28;20029;-64
2022/05/02 11:00:15;;;;;;;5.95;3.38;;;15.70;99.90;;;;;;5046815;28;20035;-64
2022/05/02 11:03:22;;;;;;;6.28;3.17;;;15.80;99.90;;;;;;5046966;28;20028;-64
2022/05/02 11:06:11;;;;;;;6.05;4.00;;;15.80;99.90;;;;;;5046790;28;20025;-64
2022/05/02 11:08:51;;;;;;;6.45;3.83;;;15.90;99.90;;;;;;5046121;28;20025;-63
2022/05/02 11:11:27;;;;;;;6.00;3.55;;;15.80;99.90;;;;;;5045274;28;20533;-69
2022/05/02 11:14:14;;;;;;;6.05;3.65;;;15.80;99.90;;;;;;5046337;28;20041;-69
2022/05/02 11:16:55;;;;;;;5.68;3.50;;;15.80;99.90;;;;;;5046709;28;20048;-69
2022/05/02 11:22:23;;;;;;;6.32;3.25;;;15.80;99.90;;;;;;5046663;28;20039;-68
2022/05/02 11:25:20;;;;;;;10.50;4.45;;;15.90;99.90;;;;;;5046719;28;20490;-67
2022/05/02 11:28:14;;;;;;;8.27;3.92;;;16.10;99.90;;;;;;5046014;28;20105;-66
2022/05/02 11:31:20;;;;;;;6.57;3.45;;;16.00;98.70;;;;;;5046509;28;20501;-68
2022/05/02 11:34:10;;;;;;;7.60;4.47;;;16.20;99.90;;;;;;5032144;28;20048;-67
2022/05/02 11:36:44;;;;;;;7.43;4.10;;;16.40;99.90;;;;;;5050046;28;20126;-68
2022/05/02 11:39:18;;;;;;;6.63;4.45;;;16.50;97.20;;;;;;5049253;28;20029;-66
2022/05/02 11:41:47;;;;;;;8.40;4.57;;;16.40;95.30;;;;;;5050037;28;20408;-66
2022/05/02 11:44:13;;;;;;;7.22;4.53;;;16.40;98.10;;;;;;5050375;28;20155;-66
2022/05/02 11:47:11;;;;;;;7.03;4.68;;;16.30;95.50;;;;;;5050322;28;20036;-66
2022/05/02 11:49:42;;;;;;;9.02;4.90;;;16.20;98.00;;;;;;5050178;28;20013;-66
2022/05/02 11:52:14;;;;;;;7.43;4.95;;;16.30;98.00;;;;;;5050072;28;20486;-67
2022/05/02 11:54:40;;;;;;;7.60;4.13;;;16.50;98.90;;;;;;5049821;28;20048;-66
2022/05/02 11:57:17;;;;;;;8.63;4.78;;;16.60;97.90;;;;;;5048807;28;20025;-66
2022/05/02 11:59:51;;;;;;;9.15;4.82;;;16.70;97.50;;;;;;5050333;28;20037;-65
2022/05/02 12:02:32;;;;;;;8.75;5.18;;;16.70;98.60;;;;;;5050176;28;20447;-65
2022/05/02 12:05:02;;;;;;;8.48;5.35;;;16.80;94.50;;;;;;5049915;28;20443;-68
2022/05/02 12:07:32;;;;;;;8.20;4.47;;;16.80;94.60;;;;;;5049962;28;20390;-69
2022/05/02 12:10:02;;;;;;;7.37;4.67;;;16.70;96.30;;;;;;5050050;28;20044;-68
2022/05/02 12:12:31;;;;;;;8.13;4.57;;;17.20;97.30;;;;;;5049426;28;20274;-68
2022/05/02 12:15:13;;;;;;;9.30;4.95;;;17.30;95.00;;;;;;5049512;28;20481;-67
2022/05/02 12:17:52;;;;;;;9.07;4.78;;;17.70;94.20;;;;;;5049586;28;20032;-68
2022/05/02 12:20:35;;;;;;;7.35;4.50;;;18.00;94.40;;;;;;5050141;28;20044;-68
2022/05/02 12:23:18;;;;;;;7.97;5.28;;;18.10;92.60;;;;;;5049497;28;20037;-68
2022/05/02 12:25:54;;;;;;;11.55;4.45;;;18.10;92.20;;;;;;5038069;28;20538;-68
2022/05/02 12:28:39;;;;;;;8.13;5.28;;;18.00;92.40;;;;;;5029303;28;20099;-66
2022/05/02 12:31:07;;;;;;;7.32;4.22;;;18.00;90.50;;;;;;5029666;28;20021;-67
2022/05/02 12:33:43;;;;;;;9.13;5.53;;;18.00;93.00;;;;;;5029284;28;20069;-70
2022/05/02 12:36:17;;;;;;;8.57;4.75;;;18.10;91.20;;;;;;5047658;28;20025;-66
2022/05/02 12:39:05;;;;;;;9.20;5.00;;;18.40;92.50;;;;;;5049490;28;20060;-68
2022/05/02 12:41:45;;;;;;;8.40;4.65;;;18.50;92.10;;;;;;5048690;28;20045;-67
2022/05/02 12:44:13;;;;;;;5.10;4.05;;;18.50;90.60;;;;;;5045214;28;20028;-64
2022/05/02 12:46:43;;;;;;;8.27;4.22;;;18.50;90.90;;;;;;5042380;28;20029;-65
2022/05/02 12:49:40;;;;;;;6.82;4.20;;;18.90;87.90;;;;;;5027709;28;20025;-66
2022/05/02 12:52:07;;;;;;;6.00;3.97;;;19.40;87.20;;;;;;5037565;28;20041;-66
2022/05/02 12:54:33;;;;;;;7.55;3.95;;;19.50;75.20;;;;;;5048427;28;20130;-68
2022/05/02 13:02:41;;;;;;;6.72;3.42;;;19.70;73.70;;;;;;5028524;28;19929;-65
2022/05/02 13:05:13;;;;;;;6.65;3.38;;;19.90;76.10;;;;;;5028445;28;20026;-65
2022/05/02 13:07:57;;;;;;;5.55;3.40;;;20.10;77.20;;;;;;5028319;28;20116;-67
2022/05/02 13:10:26;;;;;;;7.07;3.88;;;20.30;74.00;;;;;;5042661;28;20025;-66
2022/05/02 13:13:02;;;;;;;5.43;3.63;;;20.10;69.70;;;;;;5047892;28;20025;-64
2022/05/02 13:15:40;;;;;;;7.10;4.28;;;19.90;70.10;;;;;;5048132;28;20378;-66
2022/05/02 13:18:07;;;;;;;5.40;3.70;;;19.30;72.50;;;;;;5047846;28;20028;-66
2022/05/02 13:20:33;;;;;;;5.43;3.40;;;19.30;73.70;;;;;;5047051;28;20035;-66
2022/05/02 13:23:08;;;;;;;7.82;4.30;;;19.00;72.90;;;;;;5048332;28;20433;-66
2022/05/02 13:26:12;;;;;;;7.53;3.78;;;18.50;73.30;;;;;;5048546;28;20029;-66
2022/05/02 13:28:56;;;;;;;7.25;3.83;;;18.00;75.40;;;;;;5048077;28;20025;-66
2022/05/02 13:31:49;;;;;;;6.95;4.20;;;17.90;79.50;;;;;;5048500;28;20116;-66
2022/05/02 13:34:17;;;;;;;4.25;3.20;;;17.80;81.70;;;;;;5047956;28;20036;-66
2022/05/02 13:36:43;;;;;;;4.63;2.92;;;17.80;81.80;;;;;;5048158;28;20036;-66
2022/05/02 13:39:22;;;;;;;6.10;3.88;;;18.00;78.30;;;;;;5048374;28;20025;-65
2022/05/02 13:42:06;;;;;;;3.95;2.70;;;17.80;80.20;;;;;;5047737;28;20104;-65
2022/05/02 13:44:52;;;;;;;5.35;3.22;;;17.80;83.60;;;;;;5048154;28;20036;-65
2022/05/02 13:47:26;;;;;;;4.90;3.35;;;17.60;81.40;;;;;;5047747;28;20025;-65
2022/05/02 13:50:06;;;;;;;5.15;3.33;;;17.40;84.00;;;;;;5048397;28;20057;-66
2022/05/02 13:52:59;;;;;;;7.22;3.75;;;17.30;85.60;;;;;;5047943;28;20091;-66
2022/05/02 13:55:29;;;;;;;4.55;3.47;;;17.20;82.90;;;;;;5047892;28;20032;-66
2022/05/02 13:58:13;;;;;;;5.30;3.42;;;17.30;86.60;;;;;;5047684;28;20049;-66